createdAt,value
2019-03-15T00:04:30.720Z,16.20
2019-03-15T00:09:35.448Z,15.85
2019-03-15T00:14:41.736Z,15.38
2019-03-15T00:19:45.051Z,15.32
2019-03-15T00:24:48.372Z,14.35
2019-03-15T00:29:52.826Z,14.93
2019-03-15T00:35:02.710Z,15.93
2019-03-15T00:40:12.280Z,14.07
2019-03-15T00:45:17.285Z,15.03
2019-03-15T00:50:21.164Z,15.18
2019-03-15T00:55:25.910Z,14.87
2019-03-15T01:00:31.087Z,15.28
2019-03-15T01:05:35.112Z,17.07
2019-03-15T01:10:41.283Z,17.37
2019-03-15T01:15:48.082Z,16.65
2019-03-15T01:20:51.859Z,17.45
2019-03-15T01:25:57.584Z,18.52
2019-03-15T01:31:01.643Z,18.23
2019-03-15T01:36:08.014Z,19.95
2019-03-15T01:41:13.144Z,18.55
2019-03-15T01:46:21.790Z,19.52
2019-03-15T01:51:26.401Z,20.00
2019-03-15T01:56:30.020Z,19.67
2019-03-15T02:01:40.225Z,18.67
2019-03-15T02:06:45.831Z,18.60
2019-03-15T02:11:51.609Z,19.77
2019-03-15T02:16:57.225Z,18.77
2019-03-15T02:22:06.498Z,17.77
2019-03-15T02:27:09.869Z,17.48
2019-03-15T02:32:13.948Z,16.60
2019-03-15T02:37:18.574Z,17.70
2019-03-15T02:42:22.096Z,16.50
2019-03-15T02:47:26.726Z,15.38
2019-03-15T02:52:30.060Z,16.17
2019-03-15T02:57:33.415Z,14.83
2019-03-15T03:02:39.213Z,14.58
2019-03-15T03:07:43.101Z,14.00
2019-03-15T03:12:46.437Z,12.75
2019-03-15T03:17:49.737Z,11.83
2019-03-15T03:22:53.118Z,12.68
2019-03-15T03:27:56.475Z,11.73
2019-03-15T03:32:59.791Z,11.10
2019-03-15T03:38:04.205Z,11.53
2019-03-15T03:43:07.533Z,11.48
2019-03-15T03:48:15.953Z,10.88
2019-03-15T03:53:19.610Z,11.15
2019-03-15T03:58:22.997Z,11.28
2019-03-15T04:03:26.357Z,10.72
2019-03-15T04:08:29.709Z,11.70
2019-03-15T04:13:33.060Z,11.10
2019-03-15T04:18:37.270Z,10.70
2019-03-15T04:23:41.652Z,11.20
2019-03-15T04:28:46.104Z,10.60
2019-03-15T04:33:49.527Z,11.00
2019-03-15T04:38:52.841Z,11.60
2019-03-15T04:43:56.145Z,11.70
2019-03-15T04:48:59.442Z,11.57
2019-03-15T04:54:05.494Z,10.72
2019-03-15T04:59:08.905Z,11.73
2019-03-15T05:04:13.437Z,11.30
2019-03-15T05:09:16.722Z,11.85
2019-03-15T05:14:20.076Z,10.72
2019-03-15T05:19:25.126Z,12.50
2019-03-15T05:24:28.414Z,12.15
2019-03-15T05:29:32.088Z,12.30
2019-03-15T05:34:35.400Z,11.43
2019-03-15T05:39:38.753Z,11.45
2019-03-15T05:44:42.136Z,10.93
2019-03-15T05:49:45.582Z,11.12
2019-03-15T05:54:50.492Z,11.48
2019-03-15T05:59:53.887Z,12.00
2019-03-15T06:04:57.185Z,11.50
2019-03-15T06:10:01.582Z,10.60
2019-03-15T06:15:08.509Z,11.80
2019-03-15T06:20:14.178Z,12.15
2019-03-15T06:25:17.954Z,12.85
2019-03-15T06:30:21.339Z,12.25
2019-03-15T06:35:24.709Z,13.50
2019-03-15T06:40:28.023Z,13.20
2019-03-15T06:45:32.915Z,13.48
2019-03-15T06:50:36.281Z,13.00
2019-03-15T06:55:39.678Z,13.35
2019-03-15T07:00:43.186Z,13.53
2019-03-15T07:05:47.425Z,13.62
2019-03-15T07:10:51.529Z,13.43
2019-03-15T07:15:54.932Z,13.00
2019-03-15T07:20:58.367Z,13.65
2019-03-15T07:26:01.793Z,14.20
2019-03-15T07:31:05.186Z,13.22
2019-03-15T07:36:08.497Z,13.10
2019-03-15T07:41:12.159Z,11.35
2019-03-15T07:46:15.947Z,9.95
2019-03-15T07:51:19.265Z,9.65
2019-03-15T07:56:22.849Z,10.05
2019-03-15T08:01:26.265Z,9.00
2019-03-15T08:06:34.870Z,10.48
2019-03-15T08:11:35.481Z,11.08
2019-03-15T08:16:39.236Z,10.45
2019-03-15T08:21:42.598Z,12.05
2019-03-15T08:26:48.112Z,12.03
2019-03-15T08:31:52.633Z,11.68
2019-03-15T08:36:56.357Z,12.85
2019-03-15T08:41:59.879Z,12.47
2019-03-15T08:47:06.542Z,12.40
2019-03-15T08:52:11.438Z,11.00
2019-03-15T08:57:14.785Z,11.63
2019-03-15T09:02:20.579Z,11.90
2019-03-15T09:07:24.808Z,12.10
2019-03-15T09:12:32.418Z,12.80
2019-03-15T09:17:36.605Z,13.35
2019-03-15T09:22:40.879Z,12.15
2019-03-15T09:27:45.619Z,12.88
2019-03-15T09:32:49.277Z,13.03
2019-03-15T09:37:53.841Z,13.18
2019-03-15T09:43:00.007Z,11.90
2019-03-15T09:48:03.906Z,13.20
2019-03-15T09:53:07.538Z,12.00
2019-03-15T09:58:11.985Z,9.90
2019-03-15T10:03:22.072Z,10.25
2019-03-15T10:08:23.332Z,10.43
2019-03-15T10:13:27.156Z,11.57
2019-03-15T10:18:32.178Z,12.73
2019-03-15T10:24:06.206Z,13.95
2019-03-15T10:29:15.821Z,14.00
2019-03-15T10:34:16.138Z,14.07
2019-03-15T10:39:19.582Z,15.25
2019-03-15T10:44:23.549Z,15.32
2019-03-15T10:49:30.751Z,14.87
2019-03-15T10:54:33.161Z,14.10
2019-03-15T11:04:52.745Z,9.03
2019-03-15T11:09:59.070Z,11.05
2019-03-15T11:15:15.917Z,8.50
2019-03-15T11:20:21.782Z,8.55
2019-03-15T11:25:32.415Z,9.88
2019-03-15T11:30:46.026Z,7.40
2019-03-15T11:35:50.947Z,5.87
2019-03-15T11:40:54.773Z,6.15
2019-03-15T11:45:58.982Z,5.95
2019-03-15T11:51:04.549Z,5.72
2019-03-15T11:56:07.923Z,2.33
2019-03-15T12:01:13.170Z,2.15
2019-03-15T12:06:16.815Z,2.27
2019-03-15T12:11:21.098Z,4.20
2019-03-15T12:16:24.486Z,4.50
2019-03-15T12:21:29.049Z,4.05
2019-03-15T12:26:40.153Z,5.03
2019-03-15T12:31:38.435Z,4.75
2019-03-15T12:36:43.345Z,6.12
2019-03-15T12:41:46.865Z,4.53
2019-03-15T12:52:14.162Z,4.72
2019-03-15T12:57:18.852Z,4.53
2019-03-15T13:02:22.787Z,3.33
2019-03-15T13:07:26.447Z,4.33
2019-03-15T13:12:31.577Z,2.52
2019-03-15T13:17:34.977Z,2.40
2019-03-15T13:22:39.199Z,2.25
2019-03-15T13:27:42.673Z,2.55
2019-03-15T13:32:46.133Z,2.45
2019-03-15T13:37:50.145Z,3.55
2019-03-15T13:42:53.465Z,4.47
2019-03-15T13:47:57.640Z,3.87
2019-03-15T13:53:01.014Z,4.42
2019-03-15T13:58:04.463Z,2.60
2019-03-15T14:03:07.984Z,3.00
2019-03-15T14:08:12.239Z,3.90
2019-03-15T14:13:16.234Z,3.52
2019-03-15T14:18:21.530Z,4.25
2019-03-15T14:23:29.120Z,5.03
2019-03-15T14:28:32.429Z,5.17
2019-03-15T14:33:36.396Z,4.78
2019-03-15T14:38:39.927Z,5.10
2019-03-15T14:49:11.116Z,4.72
2019-03-15T14:54:15.343Z,4.03
2019-03-15T14:59:18.773Z,4.72
2019-03-15T15:04:22.551Z,6.10
2019-03-15T15:09:26.037Z,6.20
2019-03-15T15:14:31.228Z,5.87
2019-03-15T15:19:34.609Z,6.25
2019-03-15T15:24:39.994Z,6.45
2019-03-15T15:35:01.326Z,6.83
2019-03-15T15:45:36.654Z,6.42
2019-03-15T15:50:47.349Z,6.28
2019-03-15T15:55:54.305Z,6.75
2019-03-15T16:00:57.369Z,6.35
2019-03-15T16:06:01.544Z,7.17
2019-03-15T16:11:05.582Z,8.10
2019-03-15T16:16:09.015Z,9.65
2019-03-15T16:21:14.085Z,7.90
2019-03-15T16:26:17.682Z,7.85
2019-03-15T16:37:02.594Z,8.08
2019-03-15T16:47:31.758Z,8.70
2019-03-15T16:52:35.981Z,10.53
2019-03-15T16:57:46.258Z,9.98
2019-03-15T17:03:03.243Z,11.15
2019-03-15T17:13:35.285Z,9.18
2019-03-15T17:18:38.733Z,8.95
2019-03-15T17:23:51.302Z,10.53
2019-03-15T17:28:58.803Z,11.18
2019-03-15T17:34:02.631Z,9.15
2019-03-15T17:39:16.261Z,8.03
2019-03-15T17:44:21.309Z,7.00
2019-03-15T17:49:28.685Z,7.28
2019-03-15T17:54:41.051Z,7.20
2019-03-15T18:05:26.384Z,8.23
2019-03-15T18:16:19.283Z,10.45
2019-03-15T18:26:57.654Z,10.55
2019-03-15T18:32:09.822Z,9.78
2019-03-15T18:37:18.737Z,10.80
2019-03-15T18:42:27.729Z,13.25
2019-03-15T18:47:33.803Z,15.40
2019-03-15T18:58:13.145Z,14.47
2019-03-15T19:03:29.531Z,13.40
2019-03-15T19:08:40.318Z,14.95
2019-03-15T19:13:44.447Z,14.80
2019-03-15T19:18:54.773Z,14.60
2019-03-15T19:23:58.987Z,16.15
2019-03-15T19:29:04.270Z,16.52
2019-03-15T19:34:19.478Z,16.62
2019-03-15T19:39:26.742Z,16.77
2019-03-15T19:44:33.318Z,16.35
2019-03-15T19:49:41.114Z,14.85
2019-03-15T20:00:07.716Z,15.63
2019-03-15T20:05:08.137Z,13.98
2019-03-15T20:10:27.314Z,14.50
2019-03-15T20:31:52.113Z,13.03
2019-03-15T20:42:32.758Z,12.55
2019-03-15T20:47:50.275Z,14.00
2019-03-15T21:03:40.176Z,13.53
2019-03-15T21:14:10.847Z,16.17
2019-03-15T21:24:57.256Z,13.48
2019-03-15T21:30:11.726Z,14.05
2019-03-15T21:35:17.078Z,14.50
2019-03-15T21:56:56.029Z,13.43
2019-03-15T22:01:59.499Z,14.25
2019-03-15T22:07:07.259Z,14.93
2019-03-15T22:12:12.849Z,13.60
2019-03-15T22:17:20.572Z,12.28
2019-03-15T22:22:26.361Z,12.55
2019-03-15T22:27:33.339Z,13.43
2019-03-15T22:32:36.745Z,13.45
2019-03-15T22:38:01.206Z,13.50
2019-03-15T22:43:04.571Z,12.70
2019-03-15T22:48:22.643Z,13.75
2019-03-15T22:53:26.900Z,13.88
2019-03-15T22:58:35.048Z,12.47
2019-03-15T23:03:47.703Z,13.15
2019-03-15T23:13:59.809Z,13.30
2019-03-15T23:19:14.423Z,9.13
2019-03-15T23:24:21.033Z,11.28
2019-03-15T23:29:27.316Z,5.28
2019-03-15T23:34:35.403Z,3.95
2019-03-15T23:39:40.278Z,5.17
2019-03-15T23:44:51.552Z,4.75
2019-03-15T23:49:59.519Z,4.60
2019-03-15T23:55:03.307Z,4.83
